Time;durP1;ratioP1;P1;durP2;ratioP2;P2;SDS_P1;SDS_P2;PMS_P1;PMS_P2;Temp;Humidity;BMP_temperature;BMP_pressure;BME280_temperature;BME280_humidity;BME280_pressure;Samples;Min_cycle;Max_cycle;Signal;HPM_P1;HPM_P2
2021/07/13 00:02:01;;;;;;;2.60;2.35;;;26.40;53.20;;;;;;5013550;28;20386;-54
2021/07/13 00:04:26;;;;;;;2.58;2.38;;;26.40;52.60;;;;;;5008313;28;20335;-57
2021/07/13 00:06:52;;;;;;;2.40;2.20;;;26.40;52.60;;;;;;5008701;28;20033;-55
2021/07/13 00:09:19;;;;;;;2.72;2.53;;;26.40;52.60;;;;;;5010983;28;20076;-55
2021/07/13 00:11:46;;;;;;;2.67;2.47;;;26.40;52.70;;;;;;5009099;28;20030;-56
2021/07/13 00:14:12;;;;;;;2.97;2.47;;;26.40;52.70;;;;;;5008874;28;20025;-60
2021/07/13 00:16:38;;;;;;;2.55;2.35;;;26.40;52.70;;;;;;5015039;28;20037;-54
2021/07/13 00:19:04;;;;;;;3.08;2.78;;;26.40;52.70;;;;;;5004655;28;20457;-56
2021/07/13 00:21:30;;;;;;;3.03;2.50;;;26.40;52.70;;;;;;5009518;28;20396;-57
2021/07/13 00:23:56;;;;;;;2.60;2.40;;;26.40;52.70;;;;;;5023966;28;20429;-59
2021/07/13 00:26:21;;;;;;;2.83;2.63;;;26.40;52.70;;;;;;5013988;28;20361;-58
2021/07/13 00:28:47;;;;;;;2.95;2.75;;;26.40;52.70;;;;;;5008066;28;20108;-57
2021/07/13 00:31:13;;;;;;;2.70;2.50;;;26.40;52.70;;;;;;5010345;28;20355;-57
2021/07/13 00:33:39;;;;;;;2.72;2.50;;;26.40;52.70;;;;;;5011136;28;20131;-57
2021/07/13 00:36:04;;;;;;;2.80;2.60;;;26.40;52.70;;;;;;5008255;28;20029;-55
2021/07/13 00:38:30;;;;;;;2.83;2.55;;;26.40;52.70;;;;;;4999016;28;20026;-57
2021/07/13 00:40:56;;;;;;;2.83;2.63;;;26.30;52.70;;;;;;5005620;28;20452;-56
2021/07/13 00:43:22;;;;;;;2.80;2.60;;;26.30;52.70;;;;;;5006007;28;20245;-57
2021/07/13 00:45:47;;;;;;;2.85;2.65;;;26.30;52.70;;;;;;5005166;28;20158;-58
2021/07/13 00:48:13;;;;;;;3.22;2.92;;;26.30;52.70;;;;;;5005871;28;20028;-59
2021/07/13 00:50:40;;;;;;;2.92;2.72;;;26.30;52.70;;;;;;5006687;28;20030;-56
2021/07/13 00:53:06;;;;;;;3.22;2.92;;;26.30;53.30;;;;;;5009564;28;20029;-56
2021/07/13 00:55:32;;;;;;;2.95;2.75;;;26.30;52.70;;;;;;5004847;28;20401;-60
2021/07/13 00:57:58;;;;;;;2.72;2.53;;;26.30;52.70;;;;;;5027493;28;20071;-60
2021/07/13 01:00:24;;;;;;;3.38;3.08;;;26.30;52.80;;;;;;5016113;28;20026;-59
2021/07/13 01:02:55;;;;;;;3.10;2.75;;;26.30;52.80;;;;;;5020443;28;20053;-58
2021/07/13 01:05:29;;;;;;;2.90;2.70;;;26.30;52.80;;;;;;5021647;28;20029;-56
2021/07/13 01:08:32;;;;;;;3.40;3.10;;;26.30;52.80;;;;;;5025549;28;20397;-57
2021/07/13 01:11:26;;;;;;;3.20;2.90;;;26.30;52.70;;;;;;5021198;28;20021;-55
2021/07/13 01:14:13;;;;;;;2.90;2.70;;;26.30;52.80;;;;;;5018027;28;20489;-57
2021/07/13 01:16:52;;;;;;;2.70;2.50;;;26.30;52.80;;;;;;5017898;28;20381;-58
2021/07/13 01:19:46;;;;;;;2.78;2.58;;;26.30;52.80;;;;;;5017066;28;20656;-58
2021/07/13 01:22:26;;;;;;;2.83;2.63;;;26.30;52.90;;;;;;5019488;28;20056;-55
2021/07/13 01:25:03;;;;;;;2.90;2.58;;;26.30;52.90;;;;;;5023331;28;20350;-55
2021/07/13 01:27:47;;;;;;;3.25;2.95;;;26.20;52.80;;;;;;5025196;28;20087;-57
2021/07/13 01:30:19;;;;;;;3.05;2.85;;;26.30;52.90;;;;;;5019991;28;20048;-59
2021/07/13 01:32:50;;;;;;;3.30;3.00;;;26.20;52.90;;;;;;5028502;28;20039;-56
2021/07/13 01:35:28;;;;;;;3.15;2.85;;;26.30;53.00;;;;;;5021241;28;20032;-57
2021/07/13 01:37:57;;;;;;;2.80;2.60;;;26.30;53.00;;;;;;5018291;28;20096;-56
2021/07/13 01:40:25;;;;;;;3.55;3.25;;;26.20;52.90;;;;;;5018887;28;20438;-59
2021/07/13 01:42:51;;;;;;;3.30;3.00;;;26.20;53.00;;;;;;5024699;28;20041;-59
2021/07/13 01:45:18;;;;;;;2.90;2.60;;;26.20;53.00;;;;;;5028239;28;20345;-55
2021/07/13 01:47:44;;;;;;;3.45;3.05;;;26.20;53.10;;;;;;5027459;28;20493;-55
2021/07/13 01:50:12;;;;;;;3.25;2.95;;;26.20;53.10;;;;;;5029193;28;20400;-59
2021/07/13 01:52:39;;;;;;;3.03;2.72;;;26.20;53.10;;;;;;5023519;28;20033;-55
2021/07/13 01:55:07;;;;;;;3.25;2.95;;;26.20;53.10;;;;;;5019507;28;20388;-59
2021/07/13 01:57:34;;;;;;;3.03;2.72;;;26.20;53.20;;;;;;5025421;28;20022;-55
2021/07/13 02:00:09;;;;;;;2.97;2.78;;;26.20;53.30;;;;;;5027921;28;20029;-55
2021/07/13 02:02:43;;;;;;;2.75;2.55;;;26.20;53.30;;;;;;5020091;28;20022;-57
2021/07/13 02:05:11;;;;;;;2.92;2.65;;;26.20;53.30;;;;;;5028672;28;20032;-55
2021/07/13 02:07:41;;;;;;;2.95;2.70;;;26.20;53.30;;;;;;5020520;28;20437;-59
2021/07/13 02:10:07;;;;;;;3.00;2.70;;;26.20;53.40;;;;;;5021710;28;20464;-57
2021/07/13 02:12:34;;;;;;;3.40;3.10;;;26.20;53.40;;;;;;5028217;28;20072;-55
2021/07/13 02:15:01;;;;;;;2.95;2.75;;;26.20;53.40;;;;;;5020358;28;20025;-58
2021/07/13 02:17:30;;;;;;;2.95;2.65;;;26.20;53.40;;;;;;5023954;28;20111;-57
2021/07/13 02:19:58;;;;;;;3.30;3.00;;;26.10;53.30;;;;;;5023297;28;20371;-53
2021/07/13 02:22:24;;;;;;;2.90;2.70;;;26.20;53.40;;;;;;5025407;28;20365;-54
2021/07/13 02:24:49;;;;;;;3.20;2.90;;;26.20;53.30;;;;;;5017833;28;20022;-57
2021/07/13 02:27:18;;;;;;;3.17;2.95;;;26.20;53.30;;;;;;5028712;28;20204;-54
2021/07/13 02:29:56;;;;;;;3.00;2.80;;;26.20;53.30;;;;;;5014117;28;20084;-56
2021/07/13 02:32:58;;;;;;;2.83;2.63;;;26.10;53.20;;;;;;5017641;28;20099;-58
2021/07/13 02:35:34;;;;;;;2.72;2.50;;;26.20;53.30;;;;;;5016457;28;20042;-53
2021/07/13 02:38:03;;;;;;;3.00;2.70;;;26.10;53.30;;;;;;5026496;28;20061;-54
2021/07/13 02:40:29;;;;;;;3.20;2.83;;;26.20;53.40;;;;;;5023432;28;20452;-55
2021/07/13 02:42:56;;;;;;;3.20;2.90;;;26.10;53.30;;;;;;5028528;28;20041;-59
2021/07/13 02:45:22;;;;;;;3.22;2.90;;;26.10;53.30;;;;;;5032245;28;20034;-59
2021/07/13 02:47:49;;;;;;;3.20;2.90;;;26.10;53.90;;;;;;5029736;28;20033;-58
2021/07/13 02:50:17;;;;;;;3.08;2.78;;;26.10;53.40;;;;;;5019763;28;20052;-54
2021/07/13 02:52:44;;;;;;;3.28;2.85;;;26.10;53.40;;;;;;5031032;28;20029;-59
2021/07/13 02:55:19;;;;;;;3.22;2.92;;;26.10;53.40;;;;;;5015581;28;20030;-55
2021/07/13 02:57:46;;;;;;;2.88;2.67;;;26.10;53.40;;;;;;5016991;28;20034;-57
2021/07/13 03:00:14;;;;;;;2.75;2.55;;;26.10;53.40;;;;;;5018043;28;20030;-55
2021/07/13 03:02:44;;;;;;;3.70;3.40;;;26.10;53.40;;;;;;5027164;28;20044;-55
2021/07/13 03:05:15;;;;;;;3.40;3.10;;;26.10;53.50;;;;;;5026368;28;20315;-58
2021/07/13 03:07:41;;;;;;;3.13;2.85;;;26.10;53.50;;;;;;5022250;28;20112;-56
2021/07/13 03:10:07;;;;;;;3.03;2.83;;;26.10;53.50;;;;;;5027634;28;20030;-57
2021/07/13 03:12:34;;;;;;;3.05;2.78;;;26.10;53.50;;;;;;5028768;28;20030;-60
2021/07/13 03:15:02;;;;;;;3.25;3.00;;;26.10;53.50;;;;;;5022644;28;20035;-56
2021/07/13 03:17:28;;;;;;;3.03;2.75;;;26.10;53.50;;;;;;5025269;28;20030;-58
2021/07/13 03:19:54;;;;;;;3.70;3.40;;;26.10;53.50;;;;;;5020348;28;20073;-53
2021/07/13 03:22:24;;;;;;;3.38;3.08;;;26.10;53.50;;;;;;5017039;28;20036;-54
2021/07/13 03:24:51;;;;;;;3.05;2.83;;;26.10;53.60;;;;;;5013674;28;20033;-53
2021/07/13 03:27:20;;;;;;;3.38;3.08;;;26.00;53.60;;;;;;5020742;28;20034;-56
2021/07/13 03:29:47;;;;;;;3.28;2.97;;;26.00;53.60;;;;;;5017584;28;20053;-58
2021/07/13 03:32:16;;;;;;;3.17;2.88;;;26.00;53.60;;;;;;5017259;28;20037;-57
2021/07/13 03:34:43;;;;;;;3.50;3.20;;;26.00;53.60;;;;;;5021924;28;20088;-58
2021/07/13 03:37:09;;;;;;;3.28;3.00;;;26.10;53.70;;;;;;5020027;28;20125;-54
2021/07/13 03:39:36;;;;;;;3.60;2.88;;;26.00;53.60;;;;;;5020184;28;20161;-59
2021/07/13 03:42:03;;;;;;;3.33;3.05;;;26.00;53.60;;;;;;5024846;28;20413;-53
2021/07/13 03:44:29;;;;;;;3.28;3.00;;;26.00;53.70;;;;;;5023810;28;20352;-56
2021/07/13 03:46:55;;;;;;;3.40;3.10;;;26.00;53.70;;;;;;5028298;28;20049;-58
2021/07/13 03:49:24;;;;;;;3.20;2.92;;;26.00;53.70;;;;;;5013229;28;20092;-55
2021/07/13 03:51:50;;;;;;;3.63;3.33;;;26.00;53.80;;;;;;5026136;28;20044;-54
2021/07/13 03:54:18;;;;;;;3.50;3.20;;;26.00;53.80;;;;;;5016800;28;20030;-53
2021/07/13 03:56:46;;;;;;;3.25;3.00;;;26.00;53.80;;;;;;5016898;28;20068;-55
2021/07/13 03:59:12;;;;;;;3.35;3.05;;;26.00;53.90;;;;;;5015015;28;20072;-56
2021/07/13 04:01:38;;;;;;;3.20;2.92;;;26.00;54.00;;;;;;5016767;28;20044;-57
2021/07/13 04:04:05;;;;;;;4.00;3.65;;;26.00;54.00;;;;;;5023022;28;20049;-57
2021/07/13 04:06:32;;;;;;;3.65;3.35;;;26.00;54.00;;;;;;5019605;28;20128;-55
2021/07/13 04:08:59;;;;;;;3.10;2.90;;;26.00;54.10;;;;;;5017881;28;20345;-54
2021/07/13 04:11:25;;;;;;;3.60;3.30;;;26.00;54.10;;;;;;5028776;28;20045;-56
2021/07/13 04:13:50;;;;;;;3.67;3.38;;;26.00;54.10;;;;;;5019023;28;20037;-55
2021/07/13 04:16:16;;;;;;;4.13;3.72;;;26.00;54.20;;;;;;5013889;28;20029;-60
2021/07/13 04:18:42;;;;;;;4.10;3.70;;;26.00;54.30;;;;;;5022374;28;20026;-54
2021/07/13 04:21:08;;;;;;;3.47;3.17;;;26.00;54.30;;;;;;5028229;28;20411;-56
2021/07/13 04:23:34;;;;;;;4.05;3.70;;;26.00;54.30;;;;;;5025940;28;20051;-51
2021/07/13 04:26:00;;;;;;;3.58;3.28;;;26.00;54.40;;;;;;5021939;28;20373;-54
2021/07/13 04:28:26;;;;;;;3.85;3.55;;;26.00;54.50;;;;;;5026484;28;20050;-52
2021/07/13 04:30:53;;;;;;;4.28;3.90;;;26.00;55.10;;;;;;5023979;28;20048;-58
2021/07/13 04:33:19;;;;;;;4.50;4.10;;;26.00;54.50;;;;;;5022023;28;20025;-56
2021/07/13 04:35:45;;;;;;;4.20;3.80;;;26.00;54.60;;;;;;5017080;28;20029;-53
2021/07/13 04:38:10;;;;;;;3.97;3.67;;;26.00;54.70;;;;;;5028456;28;20028;-57
2021/07/13 04:40:36;;;;;;;4.20;3.80;;;26.00;54.70;;;;;;5029166;28;20120;-53
2021/07/13 04:43:02;;;;;;;4.72;4.18;;;26.00;54.70;;;;;;5016554;28;20045;-56
2021/07/13 04:45:28;;;;;;;4.35;3.95;;;26.00;54.70;;;;;;5027265;28;20065;-54
2021/07/13 04:47:54;;;;;;;4.88;4.47;;;26.00;54.80;;;;;;5014827;28;20142;-54
2021/07/13 04:50:20;;;;;;;5.10;4.60;;;26.00;54.80;;;;;;5019007;28;20039;-57
2021/07/13 04:52:46;;;;;;;5.18;4.78;;;26.00;54.90;;;;;;5019155;28;20026;-58
2021/07/13 04:55:13;;;;;;;4.68;4.28;;;26.00;55.00;;;;;;5016732;28;20026;-55
2021/07/13 04:57:39;;;;;;;4.90;4.50;;;26.00;55.00;;;;;;5012767;28;20058;-57
2021/07/13 05:00:06;;;;;;;4.80;4.40;;;26.00;55.00;;;;;;5019551;28;20034;-56
2021/07/13 05:02:32;;;;;;;4.70;4.30;;;26.00;55.00;;;;;;5012630;28;20440;-55
2021/07/13 05:04:58;;;;;;;5.68;5.18;;;26.00;55.10;;;;;;5017789;28;20026;-59
2021/07/13 05:07:23;;;;;;;5.65;5.15;;;26.00;55.10;;;;;;5021543;28;20044;-59
2021/07/13 05:09:49;;;;;;;5.57;5.07;;;26.00;55.20;;;;;;5019946;28;20029;-57
2021/07/13 05:12:15;;;;;;;5.75;5.25;;;26.00;55.20;;;;;;5022030;28;20418;-55
2021/07/13 05:14:41;;;;;;;5.50;5.00;;;26.00;55.20;;;;;;5012840;28;20026;-60
2021/07/13 05:17:07;;;;;;;5.38;4.88;;;26.00;55.30;;;;;;5014808;28;20034;-57
2021/07/13 05:19:34;;;;;;;5.55;5.05;;;26.00;55.30;;;;;;5019984;28;20025;-58
2021/07/13 05:22:02;;;;;;;5.47;4.97;;;26.00;55.40;;;;;;5017374;28;20034;-58
2021/07/13 05:24:28;;;;;;;5.53;5.03;;;26.00;55.40;;;;;;5015826;28;20030;-56
2021/07/13 05:26:55;;;;;;;5.80;5.30;;;26.00;55.30;;;;;;5015698;28;20081;-59
2021/07/13 05:29:21;;;;;;;6.53;5.90;;;26.00;55.40;;;;;;5017867;28;20076;-57
2021/07/13 05:31:46;;;;;;;6.40;5.80;;;26.00;55.30;;;;;;5013511;28;20422;-56
2021/07/13 05:34:12;;;;;;;6.13;5.53;;;26.00;55.40;;;;;;5016273;28;20038;-57
2021/07/13 05:36:38;;;;;;;5.85;5.30;;;26.00;55.40;;;;;;5028559;28;20018;-55
2021/07/13 05:39:08;;;;;;;6.45;5.85;;;26.00;55.40;;;;;;5019405;28;20484;-59
2021/07/13 05:41:34;;;;;;;6.25;5.65;;;26.00;55.40;;;;;;5010717;28;20073;-55
2021/07/13 05:44:00;;;;;;;5.88;5.38;;;26.00;55.40;;;;;;5021198;28;20424;-59
2021/07/13 05:46:26;;;;;;;5.60;5.10;;;26.00;55.40;;;;;;5024206;28;20147;-57
2021/07/13 05:48:52;;;;;;;6.03;5.43;;;26.00;55.40;;;;;;5026554;28;20101;-54
2021/07/13 05:51:18;;;;;;;6.20;5.60;;;26.00;55.40;;;;;;5022102;28;20026;-54
2021/07/13 05:53:44;;;;;;;6.32;5.72;;;26.00;55.40;;;;;;5018135;28;20033;-57
2021/07/13 05:56:11;;;;;;;6.85;6.18;;;26.00;55.40;;;;;;5015317;28;20022;-60
2021/07/13 05:58:37;;;;;;;5.78;5.28;;;26.00;55.40;;;;;;5030231;28;20045;-54
2021/07/13 06:01:05;;;;;;;6.57;5.97;;;26.00;55.40;;;;;;5019446;28;20034;-56
2021/07/13 06:03:31;;;;;;;6.43;5.82;;;26.00;55.40;;;;;;5024470;28;20360;-55
2021/07/13 06:05:57;;;;;;;6.80;6.20;;;26.00;55.40;;;;;;5021497;28;20467;-59
2021/07/13 06:08:23;;;;;;;7.15;6.05;;;26.00;55.50;;;;;;5014417;28;20041;-57
2021/07/13 06:10:49;;;;;;;7.10;6.40;;;26.00;55.50;;;;;;5015765;28;20109;-59
2021/07/13 06:13:15;;;;;;;7.22;6.53;;;26.00;55.50;;;;;;5012773;28;20048;-57
2021/07/13 06:15:40;;;;;;;7.72;6.97;;;26.00;55.60;;;;;;5015033;28;20026;-55
2021/07/13 06:18:06;;;;;;;7.13;6.43;;;26.00;55.60;;;;;;5026945;28;20033;-56
2021/07/13 06:20:34;;;;;;;6.95;6.25;;;26.00;55.70;;;;;;5024720;28;20037;-58
2021/07/13 06:23:01;;;;;;;7.70;6.90;;;26.00;55.70;;;;;;5030220;28;20029;-57
2021/07/13 06:25:27;;;;;;;7.38;6.68;;;26.00;55.80;;;;;;5026425;28;20022;-57
2021/07/13 06:27:52;;;;;;;7.90;7.13;;;26.00;55.80;;;;;;5027325;28;20029;-57
2021/07/13 06:30:19;;;;;;;7.78;6.97;;;26.00;55.80;;;;;;5030518;28;20029;-56
2021/07/13 06:32:45;;;;;;;8.25;7.45;;;25.90;55.80;;;;;;5016833;28;20080;-57
2021/07/13 06:35:11;;;;;;;8.07;7.28;;;26.00;56.50;;;;;;5026285;28;20033;-57
2021/07/13 06:37:37;;;;;;;8.27;7.15;;;26.00;55.90;;;;;;5031592;28;20457;-60
2021/07/13 06:40:05;;;;;;;7.75;7.05;;;25.90;55.90;;;;;;5023150;28;20025;-59
2021/07/13 06:42:31;;;;;;;7.38;6.68;;;26.00;56.10;;;;;;5023614;28;20112;-61
2021/07/13 06:44:57;;;;;;;8.10;7.32;;;26.00;56.20;;;;;;5018657;28;20127;-61
2021/07/13 06:47:23;;;;;;;8.13;7.35;;;26.00;56.20;;;;;;5017680;28;20498;-59
2021/07/13 06:49:49;;;;;;;7.97;6.43;;;26.00;56.20;;;;;;5019323;28;20030;-57
2021/07/13 06:52:14;;;;;;;7.63;6.88;;;26.00;56.10;;;;;;5019065;28;20095;-61
2021/07/13 06:54:40;;;;;;;7.55;6.85;;;26.00;56.10;;;;;;5026205;28;20025;-59
2021/07/13 06:57:06;;;;;;;7.40;6.75;;;26.00;56.10;;;;;;5025056;28;20361;-56
2021/07/13 06:59:34;;;;;;;7.68;6.97;;;26.10;56.70;;;;;;5019442;28;20442;-59
2021/07/13 07:02:03;;;;;;;7.78;7.07;;;26.10;56.00;;;;;;5001673;28;20022;-60
2021/07/13 07:04:29;;;;;;;7.25;6.55;;;26.10;56.00;;;;;;5015328;28;20026;-62
2021/07/13 07:06:55;;;;;;;7.63;6.93;;;26.10;56.00;;;;;;5015558;28;20064;-58
2021/07/13 07:09:21;;;;;;;7.03;6.32;;;26.20;56.00;;;;;;5026529;28;20072;-55
2021/07/13 07:11:46;;;;;;;7.47;6.78;;;26.10;56.00;;;;;;5016524;28;20033;-58
2021/07/13 07:14:12;;;;;;;7.43;6.70;;;26.20;56.10;;;;;;5019637;28;20030;-59
2021/07/13 07:16:38;;;;;;;8.43;7.53;;;26.20;56.10;;;;;;5022969;28;20033;-59
2021/07/13 07:19:04;;;;;;;7.82;7.13;;;26.20;56.10;;;;;;5028032;28;20120;-60
2021/07/13 07:21:30;;;;;;;6.80;6.20;;;26.20;56.10;;;;;;5015371;28;20045;-54
2021/07/13 07:23:56;;;;;;;8.20;7.50;;;26.30;56.20;;;;;;5026615;28;20455;-59
2021/07/13 07:26:22;;;;;;;7.93;7.13;;;26.30;56.20;;;;;;5023107;28;20037;-56
2021/07/13 07:28:47;;;;;;;7.80;7.00;;;26.30;56.30;;;;;;5021399;28;20080;-59
2021/07/13 07:31:15;;;;;;;7.45;6.75;;;26.30;56.30;;;;;;5017760;28;20033;-58
2021/07/13 07:33:41;;;;;;;7.13;6.40;;;26.30;56.30;;;;;;5025298;28;20048;-58
2021/07/13 07:36:07;;;;;;;7.15;6.45;;;26.30;56.40;;;;;;5023020;28;20439;-55
2021/07/13 07:38:33;;;;;;;7.97;6.80;;;26.30;56.40;;;;;;5022617;28;20420;-59
2021/07/13 07:40:58;;;;;;;7.22;6.53;;;26.30;56.40;;;;;;5025182;28;20086;-58
2021/07/13 07:43:24;;;;;;;8.05;7.25;;;26.40;56.50;;;;;;5022614;28;20052;-59
2021/07/13 07:45:50;;;;;;;7.13;6.50;;;26.30;56.50;;;;;;5023255;28;20041;-58
2021/07/13 07:48:16;;;;;;;6.75;6.07;;;26.40;56.60;;;;;;5023304;28;20036;-57
2021/07/13 07:50:42;;;;;;;6.47;5.75;;;26.40;56.60;;;;;;5022392;28;20031;-59
2021/07/13 07:53:07;;;;;;;6.82;6.22;;;26.40;56.70;;;;;;5021749;28;20033;-56
2021/07/13 07:55:33;;;;;;;6.97;6.32;;;26.40;56.70;;;;;;5022800;28;20026;-55
2021/07/13 07:57:59;;;;;;;6.38;5.78;;;26.40;56.70;;;;;;5017903;28;20033;-58
2021/07/13 08:00:25;;;;;;;6.22;5.63;;;26.40;56.70;;;;;;5023169;28;20037;-60
2021/07/13 08:02:52;;;;;;;6.82;6.13;;;26.50;56.80;;;;;;5024233;28;20018;-55
2021/07/13 08:05:18;;;;;;;6.53;5.82;;;26.40;56.80;;;;;;5019686;28;20029;-59
2021/07/13 08:07:46;;;;;;;6.82;6.13;;;26.40;56.80;;;;;;5025652;28;20134;-59
2021/07/13 08:10:13;;;;;;;5.65;5.15;;;26.50;56.90;;;;;;5010824;28;20053;-57
2021/07/13 08:12:42;;;;;;;5.85;5.25;;;26.50;56.90;;;;;;4996244;28;20061;-59
2021/07/13 08:15:09;;;;;;;5.55;5.05;;;26.50;57.50;;;;;;4995148;28;20077;-57
2021/07/13 08:17:35;;;;;;;5.70;5.20;;;26.50;56.90;;;;;;5005568;28;20450;-59
2021/07/13 08:20:01;;;;;;;5.63;5.13;;;26.50;56.90;;;;;;5020807;28;20032;-57
2021/07/13 08:22:29;;;;;;;5.00;4.50;;;26.40;56.90;;;;;;5020005;28;20030;-56
2021/07/13 08:24:55;;;;;;;5.28;4.78;;;26.50;57.00;;;;;;5021662;28;20457;-58
2021/07/13 08:27:21;;;;;;;4.90;4.45;;;26.50;57.00;;;;;;5022829;28;20045;-59
2021/07/13 08:29:47;;;;;;;4.47;4.07;;;26.50;57.00;;;;;;5014464;28;20052;-57
2021/07/13 08:32:13;;;;;;;4.60;4.20;;;26.50;57.00;;;;;;5017236;28;20396;-59
2021/07/13 08:34:39;;;;;;;3.80;3.50;;;26.50;57.00;;;;;;5024375;28;20028;-57
2021/07/13 08:37:05;;;;;;;4.57;4.18;;;26.50;57.00;;;;;;5014257;28;20049;-59
2021/07/13 08:39:31;;;;;;;4.72;4.20;;;26.50;57.10;;;;;;4999578;28;20049;-55
2021/07/13 08:41:58;;;;;;;4.15;3.75;;;26.50;57.10;;;;;;5011651;28;20062;-57
2021/07/13 08:44:24;;;;;;;4.03;3.65;;;26.50;57.10;;;;;;5011267;28;20029;-58
2021/07/13 08:46:49;;;;;;;4.32;3.92;;;26.50;57.10;;;;;;5017105;28;20057;-58
2021/07/13 08:49:15;;;;;;;3.58;3.28;;;26.50;57.10;;;;;;5013208;28;20036;-56
2021/07/13 08:51:43;;;;;;;3.45;3.15;;;26.60;57.20;;;;;;5013048;28;20030;-57
2021/07/13 08:54:09;;;;;;;3.60;3.28;;;26.50;57.20;;;;;;5012457;28;20110;-57
2021/07/13 08:56:36;;;;;;;5.70;3.13;;;26.50;57.20;;;;;;5004463;28;20038;-56
2021/07/13 08:59:03;;;;;;;4.70;3.25;;;26.60;57.30;;;;;;4998295;28;20059;-57
2021/07/13 09:01:31;;;;;;;3.40;3.10;;;26.60;57.30;;;;;;5019286;28;20017;-57
2021/07/13 09:04:01;;;;;;;3.35;3.05;;;26.60;57.30;;;;;;5013461;28;20109;-59
2021/07/13 09:06:47;;;;;;;3.70;3.40;;;26.60;57.40;;;;;;5032238;28;20465;-55
2021/07/13 09:09:31;;;;;;;4.45;3.80;;;26.60;57.40;;;;;;4994330;28;20062;-57
2021/07/13 09:12:17;;;;;;;3.17;2.92;;;26.60;57.40;;;;;;5008660;28;20038;-52
2021/07/13 09:14:54;;;;;;;3.45;3.15;;;26.70;57.50;;;;;;5013183;28;20097;-57
2021/07/13 09:17:39;;;;;;;2.83;2.63;;;26.70;57.50;;;;;;5010135;28;20343;-56
2021/07/13 09:20:11;;;;;;;2.90;2.70;;;26.60;57.50;;;;;;5024458;28;20033;-55
2021/07/13 09:22:51;;;;;;;3.90;3.50;;;26.70;57.60;;;;;;5026585;28;20144;-59
2021/07/13 09:25:30;;;;;;;3.15;2.88;;;26.70;57.60;;;;;;5033204;28;20029;-58
2021/07/13 09:28:10;;;;;;;3.42;3.13;;;26.70;57.60;;;;;;5019853;28;20061;-59
2021/07/13 09:30:38;;;;;;;3.72;3.42;;;26.70;57.70;;;;;;5007302;28;20064;-57
2021/07/13 09:33:27;;;;;;;3.42;3.13;;;26.70;57.80;;;;;;5017361;28;20120;-55
2021/07/13 09:35:58;;;;;;;4.20;2.95;;;26.70;57.90;;;;;;5021984;28;20413;-57
2021/07/13 09:38:24;;;;;;;3.83;3.53;;;26.70;58.00;;;;;;5016152;28;20056;-57
2021/07/13 09:40:58;;;;;;;3.60;3.30;;;26.70;58.00;;;;;;5022151;28;20499;-58
2021/07/13 09:43:25;;;;;;;;;;;26.70;58.10;;;;;;5022436;28;20055;-56
2021/07/13 09:45:51;;;;;;;3.97;3.58;;;26.70;58.10;;;;;;5014888;28;19999;-58
2021/07/13 09:48:17;;;;;;;3.63;3.33;;;26.70;58.10;;;;;;5019111;28;20029;-57
2021/07/13 09:50:49;;;;;;;3.47;3.17;;;26.70;58.10;;;;;;5017218;28;20120;-55
2021/07/13 09:53:17;;;;;;;4.25;3.22;;;26.70;58.20;;;;;;5013727;28;20025;-55
2021/07/13 09:55:47;;;;;;;3.38;3.08;;;26.80;58.30;;;;;;5021281;28;20057;-56
2021/07/13 09:58:21;;;;;;;3.90;3.42;;;26.70;58.20;;;;;;5023268;28;20079;-58
2021/07/13 10:00:53;;;;;;;4.07;3.67;;;26.80;58.30;;;;;;5017326;28;20433;-57
2021/07/13 10:03:20;;;;;;;3.83;3.53;;;26.80;58.30;;;;;;5018684;28;20037;-59
2021/07/13 10:05:49;;;;;;;3.92;3.63;;;26.80;58.30;;;;;;5021606;28;20100;-56
2021/07/13 10:08:16;;;;;;;3.80;3.40;;;26.80;58.30;;;;;;5029360;28;20064;-55
2021/07/13 10:10:43;;;;;;;3.85;3.45;;;26.80;58.30;;;;;;5026936;28;20290;-56
2021/07/13 10:13:13;;;;;;;3.38;3.08;;;26.80;58.40;;;;;;5020665;28;20034;-55
2021/07/13 10:15:40;;;;;;;3.88;3.47;;;26.80;58.40;;;;;;5024670;28;20041;-59
2021/07/13 10:18:07;;;;;;;3.40;3.10;;;26.80;58.30;;;;;;5017188;28;20037;-58
2021/07/13 10:20:35;;;;;;;3.65;3.35;;;26.80;58.20;;;;;;5016865;28;20030;-61
2021/07/13 10:23:04;;;;;;;3.30;3.00;;;26.90;58.20;;;;;;5011790;28;20434;-60
2021/07/13 10:25:38;;;;;;;3.30;3.00;;;26.90;58.10;;;;;;5036378;28;20033;-54
2021/07/13 10:28:06;;;;;;;3.28;3.00;;;26.90;58.00;;;;;;5026134;28;20065;-55
2021/07/13 10:30:31;;;;;;;3.30;3.00;;;26.90;57.80;;;;;;5027716;28;20022;-56
2021/07/13 10:32:58;;;;;;;3.20;2.90;;;27.00;57.70;;;;;;5029986;28;20033;-59
2021/07/13 10:35:28;;;;;;;3.60;3.30;;;27.00;57.60;;;;;;5014171;28;20350;-55
2021/07/13 10:37:55;;;;;;;4.00;2.70;;;27.00;57.50;;;;;;5007688;28;20030;-58
2021/07/13 10:40:27;;;;;;;3.47;3.17;;;27.00;57.50;;;;;;5010415;28;20037;-53
2021/07/13 10:43:03;;;;;;;3.30;3.00;;;27.00;57.50;;;;;;5018328;28;20026;-58
2021/07/13 10:45:42;;;;;;;3.30;2.90;;;27.00;58.10;;;;;;5020433;28;20044;-60
2021/07/13 10:48:19;;;;;;;3.50;3.20;;;27.00;57.50;;;;;;5007135;28;20449;-57
2021/07/13 10:51:09;;;;;;;3.53;3.22;;;27.10;57.50;;;;;;5017414;28;20069;-57
2021/07/13 10:53:41;;;;;;;4.80;3.10;;;27.10;57.50;;;;;;5021099;28;20030;-59
2021/07/13 10:56:28;;;;;;;3.67;3.38;;;27.10;57.60;;;;;;5010342;28;20034;-60
2021/07/13 10:58:54;;;;;;;4.25;3.03;;;27.10;57.60;;;;;;5009699;28;20026;-64
2021/07/13 11:01:24;;;;;;;3.75;3.42;;;27.20;57.70;;;;;;5007879;28;20080;-60
2021/07/13 11:03:56;;;;;;;3.63;3.33;;;27.20;57.70;;;;;;5008630;28;20040;-61
2021/07/13 11:06:45;;;;;;;4.32;3.92;;;27.20;57.70;;;;;;5022148;28;20037;-59
2021/07/13 11:09:23;;;;;;;3.72;3.42;;;27.30;57.70;;;;;;5019067;28;20022;-62
2021/07/13 11:11:51;;;;;;;4.00;3.65;;;27.30;57.70;;;;;;5025140;28;20515;-61
2021/07/13 11:14:17;;;;;;;4.78;4.30;;;27.30;57.70;;;;;;5017517;28;20132;-63
2021/07/13 11:16:48;;;;;;;4.80;4.40;;;27.30;57.70;;;;;;5012240;28;20033;-61
2021/07/13 11:19:16;;;;;;;4.28;3.88;;;27.30;57.60;;;;;;5002295;28;20090;-64
2021/07/13 11:21:46;;;;;;;5.40;4.90;;;27.30;57.60;;;;;;5008120;28;20037;-65
2021/07/13 11:24:17;;;;;;;4.88;4.38;;;27.30;57.50;;;;;;5013627;28;20048;-59
2021/07/13 11:26:49;;;;;;;5.85;5.00;;;27.40;57.60;;;;;;5012436;28;20090;-62
2021/07/13 11:29:16;;;;;;;7.97;5.82;;;27.40;57.50;;;;;;5010588;28;20057;-63
2021/07/13 11:31:46;;;;;;;8.55;5.80;;;27.40;57.50;;;;;;5010566;28;20097;-61
2021/07/13 11:34:15;;;;;;;7.43;6.28;;;27.40;57.40;;;;;;5012863;28;20046;-62
2021/07/13 11:36:53;;;;;;;7.07;6.38;;;27.40;57.40;;;;;;5006799;28;20112;-60
2021/07/13 11:39:30;;;;;;;6.85;6.25;;;27.40;57.40;;;;;;5004636;28;20482;-64
2021/07/13 11:42:05;;;;;;;6.70;6.10;;;27.50;57.40;;;;;;5013370;28;20037;-60
2021/07/13 11:44:32;;;;;;;7.88;6.60;;;27.50;57.40;;;;;;4999260;28;20125;-58
2021/07/13 11:46:58;;;;;;;7.43;6.72;;;27.50;57.30;;;;;;5009901;28;20045;-58
2021/07/13 11:49:27;;;;;;;7.30;6.70;;;27.50;57.20;;;;;;5007565;28;20026;-61
2021/07/13 11:52:03;;;;;;;7.53;6.82;;;27.50;57.20;;;;;;5012681;28;20029;-60
2021/07/13 11:54:41;;;;;;;6.88;6.28;;;27.50;57.10;;;;;;5021965;28;20021;-57
2021/07/13 11:57:13;;;;;;;8.23;7.53;;;27.50;57.10;;;;;;5004438;28;20133;-60
2021/07/13 11:59:41;;;;;;;7.13;6.53;;;27.50;57.00;;;;;;5011251;28;20125;-61
2021/07/13 12:02:08;;;;;;;7.88;7.18;;;27.50;57.00;;;;;;5011630;28;20045;-62
2021/07/13 12:04:45;;;;;;;6.95;6.35;;;27.60;57.00;;;;;;5008376;28;20113;-61
2021/07/13 12:07:16;;;;;;;7.20;6.60;;;27.60;56.90;;;;;;4996954;28;20038;-60
2021/07/13 12:09:43;;;;;;;7.40;6.70;;;27.60;56.90;;;;;;4995314;28;20046;-61
2021/07/13 12:12:11;;;;;;;7.50;6.80;;;27.60;56.90;;;;;;5001370;28;20109;-60
2021/07/13 12:14:41;;;;;;;7.22;6.53;;;27.50;56.90;;;;;;5000568;28;20033;-60
2021/07/13 12:17:12;;;;;;;6.63;6.03;;;27.60;56.90;;;;;;5002298;28;20422;-60
2021/07/13 12:19:39;;;;;;;7.18;6.47;;;27.60;56.90;;;;;;5007776;28;20416;-59
2021/07/13 12:22:12;;;;;;;7.30;6.60;;;27.60;56.90;;;;;;5004545;28;20057;-60
2021/07/13 12:24:48;;;;;;;6.82;6.20;;;27.50;56.80;;;;;;5003097;28;20045;-64
2021/07/13 12:27:23;;;;;;;7.07;6.38;;;27.60;56.80;;;;;;5000656;28;20041;-60
2021/07/13 12:30:08;;;;;;;5.90;5.40;;;27.60;56.90;;;;;;5000176;28;20074;-61
2021/07/13 12:32:38;;;;;;;6.50;5.90;;;27.60;56.90;;;;;;5000166;28;20049;-57
2021/07/13 12:35:11;;;;;;;5.90;5.40;;;27.60;56.80;;;;;;5000221;28;20042;-63
2021/07/13 12:37:41;;;;;;;5.80;5.30;;;27.60;56.80;;;;;;5003859;28;20018;-61
2021/07/13 12:40:12;;;;;;;5.90;5.40;;;27.60;56.80;;;;;;4994490;28;20116;-60
2021/07/13 12:42:43;;;;;;;5.40;4.90;;;27.60;56.70;;;;;;5005508;28;20026;-63
2021/07/13 12:45:14;;;;;;;5.25;4.78;;;27.60;56.50;;;;;;5010090;28;20025;-60
2021/07/13 12:47:50;;;;;;;5.50;4.50;;;27.70;56.40;;;;;;5011432;28;20053;-60
2021/07/13 12:50:29;;;;;;;5.28;4.85;;;27.70;56.40;;;;;;5003345;28;20058;-59
2021/07/13 12:53:00;;;;;;;5.03;4.63;;;27.70;56.40;;;;;;5020555;28;20437;-60
2021/07/13 12:55:30;;;;;;;5.85;5.35;;;27.70;56.50;;;;;;5001712;28;20030;-62
2021/07/13 12:58:21;;;;;;;5.07;4.68;;;27.70;56.50;;;;;;4995764;28;20052;-59